Time;durP1;ratioP1;P1;durP2;ratioP2;P2;SDS_P1;SDS_P2;PMS_P1;PMS_P2;Temp;Humidity;BMP_temperature;BMP_pressure;BME280_temperature;BME280_humidity;BME280_pressure;Samples;Min_cycle;Max_cycle;Signal;HPM_P1;HPM_P2
2021/08/02 00:00:58;;;;;;;3.30;0.90;;;15.80;93.10;;;;;;4978821;28;20038;-69
2021/08/02 00:03:39;;;;;;;3.83;1.20;;;15.90;93.20;;;;;;4977481;28;20085;-68
2021/08/02 00:06:08;;;;;;;2.17;1.30;;;15.80;93.30;;;;;;4978376;28;20044;-68
2021/08/02 00:08:34;;;;;;;2.17;0.88;;;15.70;93.40;;;;;;4977223;28;20039;-68
2021/08/02 00:11:00;;;;;;;2.22;0.98;;;15.70;93.50;;;;;;4977868;28;20445;-68
2021/08/02 00:13:31;;;;;;;2.53;0.80;;;15.70;93.60;;;;;;4978690;28;20385;-68
2021/08/02 00:16:00;;;;;;;1.98;1.02;;;15.70;93.60;;;;;;4977041;28;20027;-68
2021/08/02 00:18:27;;;;;;;1.90;0.93;;;15.70;94.00;;;;;;4991794;28;20019;-68
2021/08/02 00:20:55;;;;;;;2.92;1.38;;;15.70;93.80;;;;;;4974790;28;20267;-68
2021/08/02 00:23:21;;;;;;;2.63;1.10;;;15.60;93.80;;;;;;4992672;28;20053;-68
2021/08/02 00:25:47;;;;;;;2.22;0.90;;;15.60;93.90;;;;;;4977955;28;20019;-68
2021/08/02 00:28:13;;;;;;;1.73;0.93;;;15.60;94.00;;;;;;4977762;28;20029;-69
2021/08/02 00:30:39;;;;;;;5.07;1.02;;;15.60;94.10;;;;;;4978188;28;20054;-69
2021/08/02 00:33:09;;;;;;;2.47;0.88;;;15.60;94.10;;;;;;4976318;28;20492;-68
2021/08/02 00:35:42;;;;;;;2.20;1.02;;;15.60;94.20;;;;;;4991810;28;20106;-68
2021/08/02 00:38:10;;;;;;;4.38;1.05;;;15.50;94.30;;;;;;4975642;28;20385;-68
2021/08/02 00:40:48;;;;;;;2.13;1.10;;;15.50;94.40;;;;;;4992660;28;20050;-69
2021/08/02 00:43:38;;;;;;;3.40;1.05;;;15.50;94.50;;;;;;4980060;28;20078;-69
2021/08/02 00:46:05;;;;;;;2.08;0.90;;;15.50;94.60;;;;;;4975585;28;20097;-68
2021/08/02 00:48:40;;;;;;;2.50;1.02;;;15.40;94.70;;;;;;4976543;28;20377;-68
2021/08/02 00:51:07;;;;;;;2.42;1.10;;;15.50;94.70;;;;;;4974719;28;20469;-69
2021/08/02 00:53:36;;;;;;;3.80;1.25;;;15.40;94.80;;;;;;4981250;28;20438;-68
2021/08/02 00:56:03;;;;;;;3.22;1.10;;;15.50;94.80;;;;;;5003496;28;20019;-68
2021/08/02 00:58:31;;;;;;;2.63;0.90;;;15.50;94.80;;;;;;4976571;28;20015;-69
2021/08/02 01:00:57;;;;;;;3.38;1.10;;;15.50;94.80;;;;;;4977790;28;20440;-68
2021/08/02 01:03:23;;;;;;;3.25;1.00;;;15.50;94.80;;;;;;4977048;28;20030;-68
2021/08/02 01:05:51;;;;;;;2.92;1.40;;;15.40;94.90;;;;;;4992243;28;20473;-68
2021/08/02 01:08:23;;;;;;;4.15;1.10;;;15.40;94.90;;;;;;4974506;28;20034;-68
2021/08/02 01:10:54;;;;;;;2.58;1.08;;;15.40;95.00;;;;;;4976986;28;20023;-68
2021/08/02 01:13:22;;;;;;;2.08;1.10;;;15.40;95.00;;;;;;4976596;28;20018;-68
2021/08/02 01:15:51;;;;;;;2.58;1.15;;;15.40;95.10;;;;;;4976020;28;20015;-68
2021/08/02 01:18:19;;;;;;;3.83;1.27;;;15.40;95.10;;;;;;4974908;28;20476;-68
2021/08/02 01:20:52;;;;;;;2.58;1.25;;;15.40;95.20;;;;;;4974792;28;20046;-68
2021/08/02 01:23:20;;;;;;;2.83;1.20;;;15.40;95.20;;;;;;4976588;28;20387;-68
2021/08/02 01:25:46;;;;;;;4.40;1.83;;;15.40;95.30;;;;;;4989329;28;20058;-68
2021/08/02 01:28:14;;;;;;;2.42;1.27;;;15.40;95.40;;;;;;4976908;28;20053;-69
2021/08/02 01:30:46;;;;;;;3.90;1.58;;;15.40;95.40;;;;;;4990492;28;20027;-69
2021/08/02 01:33:13;;;;;;;4.43;1.10;;;15.30;95.50;;;;;;4975595;28;20497;-68
2021/08/02 01:35:39;;;;;;;2.92;1.30;;;15.30;95.50;;;;;;4974538;28;20027;-68
2021/08/02 01:38:05;;;;;;;1.90;1.50;;;15.30;95.60;;;;;;4974664;28;20444;-68
2021/08/02 01:40:31;;;;;;;1.95;1.23;;;15.30;95.60;;;;;;4976941;28;20019;-68
2021/08/02 01:42:57;;;;;;;2.95;1.48;;;15.30;95.60;;;;;;4976616;28;20031;-68
2021/08/02 01:45:24;;;;;;;2.60;1.55;;;15.30;95.60;;;;;;4977855;28;20063;-68
2021/08/02 01:47:54;;;;;;;3.17;1.60;;;15.30;95.60;;;;;;4978121;28;20039;-68
2021/08/02 01:50:35;;;;;;;4.28;1.58;;;15.30;95.60;;;;;;4975397;28;20554;-68
2021/08/02 01:53:33;;;;;;;2.40;1.42;;;15.40;95.60;;;;;;4989988;28;20022;-68
2021/08/02 01:56:17;;;;;;;3.10;2.08;;;15.30;95.60;;;;;;4974569;28;20384;-68
2021/08/02 01:59:00;;;;;;;2.03;1.33;;;15.30;95.70;;;;;;4976809;28;20022;-68
2021/08/02 02:01:26;;;;;;;2.72;1.40;;;15.30;95.70;;;;;;4976510;28;20031;-68
2021/08/02 02:03:53;;;;;;;3.75;1.63;;;15.30;95.80;;;;;;4975658;28;20019;-68
2021/08/02 02:06:24;;;;;;;2.40;1.70;;;15.30;95.80;;;;;;4975026;28;20019;-68
2021/08/02 02:09:30;;;;;;;3.40;1.70;;;15.30;95.80;;;;;;4977369;28;20113;-68
2021/08/02 02:11:59;;;;;;;5.50;1.10;;;15.30;95.80;;;;;;4969454;28;20031;-68
2021/08/02 02:14:35;;;;;;;2.45;1.38;;;15.30;95.90;;;;;;4973889;28;20033;-68
2021/08/02 02:17:02;;;;;;;3.25;1.13;;;15.30;95.80;;;;;;4987389;28;20027;-68
2021/08/02 02:19:28;;;;;;;5.15;1.58;;;15.30;95.90;;;;;;4973971;28;20046;-68
2021/08/02 02:21:56;;;;;;;2.20;1.40;;;15.30;95.90;;;;;;4973978;28;20034;-68
2021/08/02 02:24:22;;;;;;;2.08;1.10;;;15.30;95.90;;;;;;4976237;28;20069;-68
2021/08/02 02:26:48;;;;;;;3.97;1.30;;;15.30;95.90;;;;;;4976463;28;20030;-69
2021/08/02 02:29:16;;;;;;;2.95;1.30;;;15.30;95.90;;;;;;4975320;28;20026;-69
2021/08/02 02:31:46;;;;;;;3.55;1.50;;;15.30;95.90;;;;;;4978307;28;20494;-69
2021/08/02 02:34:14;;;;;;;3.13;1.42;;;15.30;95.90;;;;;;4976885;28;20500;-68
2021/08/02 02:36:41;;;;;;;3.35;1.25;;;15.30;95.90;;;;;;4976093;28;20051;-68
2021/08/02 02:39:07;;;;;;;3.67;1.08;;;15.30;95.90;;;;;;4987746;28;20018;-69
2021/08/02 02:41:34;;;;;;;4.47;2.17;;;15.20;95.90;;;;;;4975642;28;20093;-68
2021/08/02 02:44:01;;;;;;;3.38;1.55;;;15.20;96.00;;;;;;4977535;28;20018;-68
2021/08/02 02:46:56;;;;;;;4.20;1.60;;;15.10;96.20;;;;;;4973443;28;20243;-69
2021/08/02 02:49:23;;;;;;;2.50;1.17;;;15.10;96.40;;;;;;4969644;28;20096;-68
2021/08/02 02:51:50;;;;;;;2.08;1.42;;;15.10;96.40;;;;;;4973630;28;20066;-68
2021/08/02 02:54:17;;;;;;;2.08;1.15;;;15.10;96.40;;;;;;4973634;28;20054;-68
2021/08/02 02:56:43;;;;;;;3.08;1.60;;;15.10;96.50;;;;;;4987450;28;20089;-68
2021/08/02 02:59:09;;;;;;;2.55;1.58;;;15.00;96.60;;;;;;4977070;28;20535;-68
2021/08/02 03:01:41;;;;;;;2.35;1.50;;;14.90;96.70;;;;;;4974499;28;20066;-69
2021/08/02 03:04:08;;;;;;;3.10;1.65;;;15.00;96.80;;;;;;4990610;28;20031;-68
2021/08/02 03:06:34;;;;;;;3.75;1.40;;;15.00;96.90;;;;;;4974170;28;20034;-68
2021/08/02 03:09:02;;;;;;;1.92;1.10;;;15.00;96.90;;;;;;4973741;28;20026;-68
2021/08/02 03:11:28;;;;;;;1.95;1.55;;;15.00;96.90;;;;;;4975320;28;20030;-68
2021/08/02 03:13:55;;;;;;;3.42;1.35;;;15.10;97.00;;;;;;4974623;28;20011;-68
2021/08/02 03:16:21;;;;;;;3.10;1.25;;;15.10;97.00;;;;;;4973231;28;20062;-68
2021/08/02 03:18:47;;;;;;;3.47;1.38;;;15.10;97.00;;;;;;4974153;28;20015;-68
2021/08/02 03:21:14;;;;;;;2.95;1.50;;;15.10;97.10;;;;;;4988087;28;20108;-69
2021/08/02 03:24:10;;;;;;;2.85;1.25;;;15.10;97.10;;;;;;4975468;28;20019;-68
2021/08/02 03:26:43;;;;;;;1.98;0.88;;;15.10;97.00;;;;;;4976218;28;20019;-68
2021/08/02 03:29:19;;;;;;;4.57;1.40;;;15.10;97.10;;;;;;4987521;28;20055;-68
2021/08/02 03:31:57;;;;;;;2.70;1.00;;;15.10;97.10;;;;;;4976970;28;20027;-68
2021/08/02 03:34:27;;;;;;;3.33;1.40;;;15.20;97.10;;;;;;4978898;28;20023;-68
2021/08/02 03:36:54;;;;;;;2.60;1.45;;;15.20;97.10;;;;;;4980227;28;20019;-68
2021/08/02 03:39:22;;;;;;;3.17;1.38;;;15.10;97.10;;;;;;4991797;28;20114;-67
2021/08/02 03:41:50;;;;;;;3.03;1.20;;;15.10;97.10;;;;;;4975173;28;20029;-68
2021/08/02 03:44:17;;;;;;;2.83;1.05;;;15.10;97.10;;;;;;4980734;28;20026;-68
2021/08/02 03:46:42;;;;;;;2.10;1.00;;;15.10;97.10;;;;;;4978133;28;20520;-68
2021/08/02 03:49:09;;;;;;;2.80;1.40;;;15.10;97.20;;;;;;4979241;28;20027;-68
2021/08/02 03:51:49;;;;;;;2.00;1.02;;;15.10;97.20;;;;;;4977841;28;20027;-67
2021/08/02 03:54:16;;;;;;;6.22;1.23;;;15.10;97.20;;;;;;4977643;28;20086;-68
2021/08/02 03:56:43;;;;;;;3.85;1.23;;;15.10;97.20;;;;;;4976630;28;20034;-68
2021/08/02 03:59:08;;;;;;;3.20;1.50;;;15.10;97.20;;;;;;4981189;28;20469;-68
2021/08/02 04:01:41;;;;;;;3.15;1.50;;;15.00;97.20;;;;;;4978617;28;20135;-68
2021/08/02 04:04:07;;;;;;;3.35;1.40;;;15.00;97.30;;;;;;4979671;28;20027;-68
2021/08/02 04:06:34;;;;;;;1.77;1.20;;;15.00;97.40;;;;;;4992498;28;20507;-68
2021/08/02 04:09:00;;;;;;;2.38;1.13;;;15.00;97.40;;;;;;4976762;28;20428;-68
2021/08/02 04:11:26;;;;;;;1.83;1.23;;;15.00;97.50;;;;;;4979964;28;20031;-67
2021/08/02 04:13:51;;;;;;;3.15;1.30;;;15.00;97.50;;;;;;4977631;28;20034;-68
2021/08/02 04:16:17;;;;;;;1.75;1.30;;;15.10;97.50;;;;;;4969443;28;20034;-67
2021/08/02 04:18:42;;;;;;;3.25;1.00;;;15.00;97.50;;;;;;4975694;28;20046;-68
2021/08/02 04:21:08;;;;;;;2.25;1.92;;;15.00;97.60;;;;;;4976440;28;20031;-68
2021/08/02 04:23:33;;;;;;;1.98;1.40;;;15.10;97.60;;;;;;4991013;28;20454;-68
2021/08/02 04:25:59;;;;;;;3.75;1.42;;;15.10;97.60;;;;;;4993298;28;20122;-68
2021/08/02 04:28:24;;;;;;;3.42;1.70;;;15.10;97.60;;;;;;4979637;28;20404;-68
2021/08/02 04:30:50;;;;;;;2.78;1.42;;;15.10;97.60;;;;;;4992950;28;20069;-68
2021/08/02 04:33:16;;;;;;;3.80;1.90;;;15.10;97.70;;;;;;4977131;28;20058;-68
2021/08/02 04:35:42;;;;;;;4.85;2.13;;;15.10;97.70;;;;;;4977743;28;20023;-68
2021/08/02 04:38:08;;;;;;;3.45;1.98;;;15.10;97.70;;;;;;4976051;28;20034;-68
2021/08/02 04:40:34;;;;;;;4.20;1.60;;;15.10;97.70;;;;;;4990809;28;20015;-68
2021/08/02 04:42:59;;;;;;;5.07;1.80;;;15.10;97.80;;;;;;4977669;28;20019;-68
2021/08/02 04:45:25;;;;;;;4.85;2.35;;;15.20;97.80;;;;;;4979462;28;20038;-68
2021/08/02 04:47:51;;;;;;;4.53;1.88;;;15.20;97.80;;;;;;4976908;28;20043;-68
2021/08/02 04:50:17;;;;;;;2.30;1.50;;;15.20;97.80;;;;;;4991791;28;20485;-68
2021/08/02 04:52:43;;;;;;;3.50;1.63;;;15.20;97.80;;;;;;4992136;28;20085;-68
2021/08/02 04:55:09;;;;;;;2.00;1.48;;;15.20;97.80;;;;;;4975651;28;20433;-68
2021/08/02 04:57:35;;;;;;;2.88;1.75;;;15.20;97.90;;;;;;4975482;28;20511;-68
2021/08/02 05:00:00;;;;;;;3.58;1.90;;;15.30;97.90;;;;;;4992721;28;20027;-68
2021/08/02 05:02:26;;;;;;;4.03;1.88;;;15.30;97.90;;;;;;4979488;28;20086;-68
2021/08/02 05:04:52;;;;;;;2.83;1.70;;;15.30;98.20;;;;;;4976862;28;20030;-68
2021/08/02 05:07:17;;;;;;;3.22;1.50;;;15.30;98.00;;;;;;4968554;28;20023;-68
2021/08/02 05:09:43;;;;;;;3.08;2.10;;;15.30;98.00;;;;;;4977779;28;20481;-68
2021/08/02 05:12:10;;;;;;;2.92;1.58;;;15.30;98.00;;;;;;4989496;28;20118;-68
2021/08/02 05:14:35;;;;;;;2.65;1.92;;;15.30;98.00;;;;;;4976749;28;20055;-67
2021/08/02 05:17:01;;;;;;;2.35;1.75;;;15.40;98.00;;;;;;4977498;28;20043;-68
2021/08/02 05:19:26;;;;;;;2.30;1.42;;;15.40;98.00;;;;;;4975700;28;20070;-68
2021/08/02 05:21:52;;;;;;;4.20;1.60;;;15.40;98.00;;;;;;4979363;28;20045;-68
2021/08/02 05:24:17;;;;;;;4.10;2.20;;;15.50;98.00;;;;;;4994727;28;20031;-68
2021/08/02 05:26:43;;;;;;;2.00;1.65;;;15.50;98.00;;;;;;4994426;28;20040;-67
2021/08/02 05:29:09;;;;;;;3.85;1.60;;;15.50;98.00;;;;;;4994551;28;20093;-68
2021/08/02 05:31:34;;;;;;;4.72;2.40;;;15.50;98.00;;;;;;4994586;28;20038;-68
2021/08/02 05:34:00;;;;;;;3.72;1.83;;;15.60;98.00;;;;;;4994901;28;20022;-68
2021/08/02 05:36:25;;;;;;;2.38;1.48;;;15.60;98.00;;;;;;4994794;28;20022;-68
2021/08/02 05:38:51;;;;;;;2.80;2.13;;;15.60;98.00;;;;;;4994855;28;20112;-68
2021/08/02 05:41:16;;;;;;;3.20;1.52;;;15.60;98.00;;;;;;4994329;28;20037;-68
2021/08/02 05:43:42;;;;;;;2.85;1.73;;;15.60;97.90;;;;;;4994517;28;20066;-68
2021/08/02 05:46:08;;;;;;;3.22;1.70;;;15.70;98.00;;;;;;4994367;28;20026;-68
2021/08/02 05:48:33;;;;;;;5.10;1.67;;;15.70;98.00;;;;;;4993213;28;20117;-68
2021/08/02 05:50:59;;;;;;;3.47;1.90;;;15.70;97.90;;;;;;4994442;28;20022;-68
2021/08/02 05:53:24;;;;;;;4.72;1.85;;;15.70;97.90;;;;;;4986449;28;20540;-68
2021/08/02 05:55:50;;;;;;;2.90;2.08;;;15.70;97.90;;;;;;4993606;28;20026;-68
2021/08/02 05:58:15;;;;;;;4.65;1.75;;;15.70;97.90;;;;;;4994260;28;20093;-68
2021/08/02 06:00:41;;;;;;;4.05;2.15;;;15.70;97.90;;;;;;4992984;28;20551;-68
2021/08/02 06:03:06;;;;;;;2.67;1.75;;;15.80;97.90;;;;;;4992755;28;20509;-68
2021/08/02 06:05:32;;;;;;;4.88;2.00;;;15.80;97.90;;;;;;4993932;28;20027;-67
2021/08/02 06:07:58;;;;;;;3.00;1.25;;;15.80;97.90;;;;;;4993981;28;20788;-68
2021/08/02 06:10:23;;;;;;;3.60;1.27;;;15.80;97.80;;;;;;4993543;28;20136;-68
2021/08/02 06:12:53;;;;;;;2.55;1.30;;;15.80;97.80;;;;;;4994020;28;20476;-68
2021/08/02 06:15:19;;;;;;;2.63;1.65;;;15.80;97.80;;;;;;4994348;28;20041;-68
2021/08/02 06:17:44;;;;;;;3.15;1.40;;;15.80;97.70;;;;;;4993963;28;20492;-68
2021/08/02 06:20:10;;;;;;;2.67;1.30;;;15.90;97.70;;;;;;4992616;28;20056;-68
2021/08/02 06:22:36;;;;;;;2.60;1.27;;;15.90;97.60;;;;;;4989947;28;20034;-69
2021/08/02 06:25:02;;;;;;;4.60;1.63;;;15.90;97.60;;;;;;4993512;28;20027;-68
2021/08/02 06:27:30;;;;;;;1.77;1.20;;;15.90;97.50;;;;;;4992451;28;20023;-69
2021/08/02 06:30:00;;;;;;;2.45;1.40;;;15.90;97.40;;;;;;4989316;28;20129;-68
2021/08/02 06:32:27;;;;;;;3.97;1.50;;;15.90;97.30;;;;;;4979225;28;20035;-68
2021/08/02 06:34:53;;;;;;;2.70;1.40;;;15.90;97.20;;;;;;4977533;28;20468;-68
2021/08/02 06:37:31;;;;;;;2.35;1.25;;;16.00;97.20;;;;;;4975990;28;20038;-68
2021/08/02 06:39:56;;;;;;;2.60;1.38;;;16.00;97.00;;;;;;4978555;28;20037;-68
2021/08/02 06:42:22;;;;;;;5.75;2.28;;;16.00;97.00;;;;;;4992817;28;20480;-69
2021/08/02 06:44:48;;;;;;;2.95;1.92;;;16.00;96.90;;;;;;4993218;28;20030;-68
2021/08/02 06:47:13;;;;;;;5.40;1.90;;;16.10;96.90;;;;;;4989112;28;20113;-68
2021/08/02 06:49:39;;;;;;;3.30;1.60;;;16.10;96.80;;;;;;4991162;28;20034;-68
2021/08/02 06:52:37;;;;;;;6.25;1.77;;;16.10;96.70;;;;;;4988779;28;20042;-68
2021/08/02 06:55:03;;;;;;;3.13;1.80;;;16.20;96.60;;;;;;4991421;28;20045;-68
2021/08/02 06:57:28;;;;;;;3.42;1.48;;;16.20;96.60;;;;;;4993193;28;20057;-68
2021/08/02 06:59:57;;;;;;;2.80;1.48;;;16.20;96.50;;;;;;4988007;28;20023;-68
2021/08/02 07:02:23;;;;;;;4.15;1.20;;;16.20;96.50;;;;;;4991396;28;20026;-68
2021/08/02 07:04:49;;;;;;;2.33;1.25;;;16.20;96.40;;;;;;4992440;28;20057;-68
2021/08/02 07:07:15;;;;;;;2.70;1.33;;;16.30;96.40;;;;;;4991005;28;20593;-68
2021/08/02 07:09:40;;;;;;;1.48;0.88;;;16.30;96.30;;;;;;4993081;28;20109;-68
2021/08/02 07:12:06;;;;;;;5.63;1.55;;;16.30;96.20;;;;;;4992557;28;20105;-67
2021/08/02 07:14:32;;;;;;;2.45;0.98;;;16.40;96.10;;;;;;4993222;28;20065;-67
2021/08/02 07:16:57;;;;;;;3.90;1.45;;;16.40;96.00;;;;;;4992887;28;20065;-67
2021/08/02 07:19:23;;;;;;;2.78;0.73;;;16.50;95.90;;;;;;4993013;28;20061;-67
2021/08/02 07:21:48;;;;;;;1.95;0.82;;;16.60;95.90;;;;;;4992804;28;20029;-67
2021/08/02 07:24:14;;;;;;;3.20;0.93;;;16.60;95.60;;;;;;4988599;28;20512;-67
2021/08/02 07:26:40;;;;;;;2.70;1.20;;;16.70;95.40;;;;;;5001135;28;20400;-67
2021/08/02 07:29:05;;;;;;;2.67;1.08;;;16.70;95.10;;;;;;4992126;28;20085;-67
2021/08/02 07:31:31;;;;;;;4.28;0.98;;;16.80;94.90;;;;;;4992789;28;20034;-68
2021/08/02 07:34:19;;;;;;;3.05;0.85;;;16.90;94.80;;;;;;4992680;28;20482;-67
2021/08/02 07:36:45;;;;;;;1.90;0.75;;;16.90;94.60;;;;;;4993084;28;20029;-67
2021/08/02 07:39:11;;;;;;;5.30;0.68;;;17.00;94.40;;;;;;4992845;28;20022;-67
2021/08/02 07:41:37;;;;;;;1.95;0.75;;;17.10;94.20;;;;;;4991542;28;20101;-67
2021/08/02 07:44:03;;;;;;;2.65;0.90;;;17.20;94.10;;;;;;4987817;28;20515;-68
2021/08/02 07:46:35;;;;;;;1.33;0.50;;;17.30;94.00;;;;;;4988379;28;20419;-67
2021/08/02 07:49:01;;;;;;;2.97;0.80;;;17.40;93.80;;;;;;4992791;28;20031;-68
2021/08/02 07:51:28;;;;;;;3.17;1.10;;;17.50;93.60;;;;;;4992493;28;20033;-68
2021/08/02 07:53:55;;;;;;;4.28;1.20;;;17.60;93.40;;;;;;4992414;28;20102;-67
2021/08/02 07:56:21;;;;;;;3.38;0.80;;;17.70;93.10;;;;;;4990904;28;20515;-67
2021/08/02 07:58:46;;;;;;;1.30;0.50;;;17.90;92.90;;;;;;4992484;28;20018;-67
2021/08/02 08:01:12;;;;;;;0.75;0.60;;;18.00;92.60;;;;;;4989189;28;20045;-68
2021/08/02 08:03:37;;;;;;;2.70;0.70;;;18.00;92.40;;;;;;4987926;28;20030;-67
2021/08/02 08:06:03;;;;;;;1.52;0.50;;;18.00;92.00;;;;;;5003738;28;20037;-68
2021/08/02 08:08:36;;;;;;;1.83;0.50;;;18.00;91.60;;;;;;4982788;28;20022;-68
2021/08/02 08:11:02;;;;;;;2.42;0.68;;;18.10;91.50;;;;;;4987303;28;20038;-67
2021/08/02 08:13:27;;;;;;;0.85;0.50;;;18.10;91.10;;;;;;4981233;28;20027;-68
2021/08/02 08:15:53;;;;;;;1.30;0.52;;;18.20;91.10;;;;;;4991857;28;20058;-68
2021/08/02 08:18:18;;;;;;;0.90;0.50;;;18.30;90.80;;;;;;4988602;28;20026;-68
2021/08/02 08:20:44;;;;;;;1.73;0.60;;;18.40;90.40;;;;;;4993264;28;20085;-68
2021/08/02 08:23:10;;;;;;;2.70;1.20;;;18.40;88.60;;;;;;4990758;28;20023;-68
2021/08/02 08:25:36;;;;;;;1.95;0.50;;;18.50;88.80;;;;;;4976442;28;20093;-68
2021/08/02 08:28:01;;;;;;;1.55;0.40;;;18.60;88.70;;;;;;4991149;28;20031;-68
2021/08/02 08:30:27;;;;;;;1.83;0.50;;;18.60;88.60;;;;;;4990581;28;20546;-68
2021/08/02 08:32:53;;;;;;;3.50;0.60;;;18.70;88.30;;;;;;4987531;28;20030;-68
2021/08/02 08:35:18;;;;;;;2.85;0.63;;;18.70;88.30;;;;;;4995331;28;20026;-68
2021/08/02 08:37:44;;;;;;;3.08;0.70;;;18.70;88.00;;;;;;4995651;28;20018;-68
2021/08/02 08:40:11;;;;;;;2.70;0.70;;;18.70;87.50;;;;;;4995499;28;20496;-68
2021/08/02 08:42:41;;;;;;;1.48;0.60;;;18.70;87.40;;;;;;4995353;28;20049;-67
2021/08/02 08:45:07;;;;;;;;;;;18.70;87.10;;;;;;4981141;28;20515;-68
2021/08/02 08:47:34;;;;;;;2.25;0.50;;;18.60;87.40;;;;;;4995538;28;19924;-68
2021/08/02 08:50:08;;;;;;;1.17;0.40;;;18.70;87.50;;;;;;4995383;28;20019;-68
2021/08/02 08:52:36;;;;;;;1.27;0.40;;;18.80;87.20;;;;;;4995134;28;20109;-68
2021/08/02 08:55:05;;;;;;;1.60;0.30;;;18.90;87.00;;;;;;4995236;28;20022;-68
2021/08/02 08:57:34;;;;;;;2.15;0.35;;;18.90;86.50;;;;;;4993765;28;20081;-68
2021/08/02 08:59:59;;;;;;;1.95;0.57;;;19.00;86.30;;;;;;4995064;28;20484;-68
2021/08/02 09:02:38;;;;;;;1.23;0.38;;;19.10;86.30;;;;;;4995150;28;20038;-68
2021/08/02 09:05:03;;;;;;;0.90;0.40;;;19.20;85.60;;;;;;4993826;28;20122;-68
2021/08/02 09:07:40;;;;;;;1.80;0.45;;;19.20;85.30;;;;;;4993791;28;20108;-67
2021/08/02 09:10:14;;;;;;;1.20;0.45;;;19.30;85.10;;;;;;4994802;28;20109;-68
2021/08/02 09:12:55;;;;;;;1.60;0.40;;;19.40;84.50;;;;;;4995154;28;20058;-68
2021/08/02 09:15:38;;;;;;;1.02;0.40;;;19.50;84.20;;;;;;4990201;28;20022;-68
2021/08/02 09:18:07;;;;;;;1.05;0.45;;;19.60;83.60;;;;;;4987345;28;20109;-68
2021/08/02 09:20:33;;;;;;;1.02;0.40;;;19.60;83.40;;;;;;4994441;28;20029;-68
2021/08/02 09:23:08;;;;;;;1.98;0.60;;;19.60;82.90;;;;;;4994792;28;20030;-68
2021/08/02 09:25:34;;;;;;;1.65;0.50;;;19.80;82.30;;;;;;4982332;28;20018;-69
2021/08/02 09:28:11;;;;;;;3.67;0.70;;;19.80;82.00;;;;;;4993947;28;20033;-70
2021/08/02 09:30:37;;;;;;;2.45;0.70;;;20.00;82.00;;;;;;4991701;28;20034;-69
2021/08/02 09:33:04;;;;;;;0.88;0.50;;;20.10;81.20;;;;;;4993560;28;20026;-69
2021/08/02 09:35:33;;;;;;;1.80;0.60;;;20.20;80.60;;;;;;4994340;28;20018;-69
2021/08/02 09:38:13;;;;;;;1.85;0.45;;;20.30;80.30;;;;;;4989336;28;20015;-69
2021/08/02 09:41:08;;;;;;;1.90;0.50;;;20.30;80.20;;;;;;4989055;28;20037;-68
2021/08/02 09:43:34;;;;;;;3.20;0.50;;;20.30;80.20;;;;;;4992597;28;20030;-69
2021/08/02 09:46:02;;;;;;;1.50;0.60;;;20.30;80.70;;;;;;4992179;28;20022;-69
2021/08/02 09:48:41;;;;;;;0.70;0.40;;;20.30;80.80;;;;;;4993797;28;20046;-69
2021/08/02 09:51:09;;;;;;;1.38;0.47;;;20.20;80.90;;;;;;4970496;28;20082;-69
2021/08/02 09:53:54;;;;;;;1.02;0.30;;;20.20;81.10;;;;;;4993390;28;20086;-68
2021/08/02 09:56:22;;;;;;;1.15;0.40;;;20.10;81.30;;;;;;4991826;28;20392;-69
2021/08/02 09:58:49;;;;;;;0.88;0.40;;;20.10;81.70;;;;;;4989996;28;20081;-67
2021/08/02 10:01:25;;;;;;;0.60;0.30;;;20.00;81.80;;;;;;4993295;28;20492;-68
2021/08/02 10:04:24;;;;;;;3.78;0.75;;;20.00;81.50;;;;;;4979971;28;20022;-68
2021/08/02 10:07:30;;;;;;;0.60;0.30;;;20.00;81.50;;;;;;4980905;28;20405;-68
2021/08/02 10:09:56;;;;;;;1.08;0.40;;;19.90;81.60;;;;;;4983803;28;20106;-69
2021/08/02 10:12:21;;;;;;;1.92;0.40;;;19.90;81.60;;;;;;4992540;28;20044;-68
2021/08/02 10:14:54;;;;;;;0.57;0.38;;;20.00;81.40;;;;;;4993443;28;20042;-68
2021/08/02 10:17:20;;;;;;;0.93;0.30;;;20.10;81.30;;;;;;4991424;28;20030;-67
2021/08/02 10:19:54;;;;;;;1.20;0.43;;;20.10;80.90;;;;;;4993067;28;20026;-68
2021/08/02 10:22:20;;;;;;;2.92;0.50;;;20.30;80.50;;;;;;4992652;28;20444;-67
2021/08/02 10:24:51;;;;;;;0.93;0.38;;;20.30;80.50;;;;;;4991087;28;20507;-67
2021/08/02 10:27:28;;;;;;;2.40;0.80;;;20.40;80.10;;;;;;4978081;28;20026;-68
2021/08/02 10:29:53;;;;;;;1.38;0.60;;;20.50;79.70;;;;;;4973680;28;20023;-68
2021/08/02 10:32:27;;;;;;;1.08;0.43;;;20.60;79.70;;;;;;4975266;28;20034;-68
2021/08/02 10:34:57;;;;;;;1.83;0.93;;;20.80;79.30;;;;;;4991393;28;20362;-68
2021/08/02 10:38:05;;;;;;;1.65;0.50;;;21.10;78.70;;;;;;4993266;28;20014;-68
2021/08/02 10:40:44;;;;;;;1.45;0.60;;;21.20;78.10;;;;;;4984092;28;20117;-68
2021/08/02 10:43:10;;;;;;;2.03;0.60;;;21.20;77.80;;;;;;4991770;28;20038;-68
2021/08/02 10:45:38;;;;;;;1.92;0.40;;;21.20;78.00;;;;;;4992255;28;20038;-67
2021/08/02 10:48:04;;;;;;;4.53;0.55;;;21.30;78.00;;;;;;4991361;28;20108;-68
2021/08/02 10:50:36;;;;;;;3.67;0.60;;;21.30;77.40;;;;;;4989641;28;20484;-67
2021/08/02 10:53:17;;;;;;;2.53;0.60;;;21.40;77.10;;;;;;4998612;28;20399;-68
2021/08/02 10:55:52;;;;;;;1.70;0.80;;;21.50;76.30;;;;;;4974237;28;20361;-68
2021/08/02 10:58:38;;;;;;;2.08;0.40;;;21.40;75.50;;;;;;4988302;28;20377;-68
2021/08/02 11:01:11;;;;;;;2.50;0.50;;;21.40;75.40;;;;;;4979570;28;20033;-68
2021/08/02 11:03:40;;;;;;;1.55;0.55;;;21.40;75.60;;;;;;4975706;28;20027;-67
2021/08/02 11:06:11;;;;;;;2.60;0.80;;;21.40;75.00;;;;;;4978024;28;20025;-68
2021/08/02 11:08:48;;;;;;;1.77;0.55;;;21.40;75.40;;;;;;4984545;28;20045;-68
2021/08/02 11:11:20;;;;;;;3.08;0.60;;;21.40;75.40;;;;;;4988150;28;20022;-68
2021/08/02 11:13:46;;;;;;;1.58;0.40;;;21.40;75.70;;;;;;4996861;28;20348;-67
2021/08/02 11:16:26;;;;;;;2.00;0.52;;;21.30;75.90;;;;;;4984113;28;20021;-68
2021/08/02 11:18:59;;;;;;;1.63;0.40;;;21.40;76.00;;;;;;4990734;28;20022;-67
2021/08/02 11:21:26;;;;;;;1.45;0.40;;;21.40;75.90;;;;;;4989191;28;20531;-68
2021/08/02 11:23:54;;;;;;;2.10;0.95;;;21.60;75.80;;;;;;4992525;28;20033;-68
2021/08/02 11:26:21;;;;;;;1.45;0.50;;;21.70;75.20;;;;;;4992391;28;20026;-68
2021/08/02 11:28:49;;;;;;;2.70;0.50;;;21.80;75.30;;;;;;4992523;28;20014;-68
2021/08/02 11:31:16;;;;;;;1.77;0.50;;;22.00;75.30;;;;;;4992257;28;20053;-68
2021/08/02 11:33:44;;;;;;;2.10;0.40;;;22.20;74.70;;;;;;4991002;28;20437;-68
2021/08/02 11:36:15;;;;;;;2.05;0.45;;;22.40;74.60;;;;;;4992485;28;20058;-68
2021/08/02 11:41:32;;;;;;;2.20;0.70;;;22.40;74.20;;;;;;4975242;28;20023;-67
2021/08/02 11:43:58;;;;;;;1.67;0.60;;;22.30;73.60;;;;;;4972996;28;20030;-68
2021/08/02 11:46:24;;;;;;;2.35;0.77;;;22.30;73.30;;;;;;4985664;28;20157;-68
2021/08/02 11:49:27;;;;;;;2.83;0.75;;;22.30;72.30;;;;;;4992282;28;20563;-68
2021/08/02 11:51:57;;;;;;;1.48;0.50;;;22.30;72.20;;;;;;4990548;28;20139;-68
2021/08/02 11:54:23;;;;;;;;;;;22.20;71.90;;;;;;4994847;28;20026;-67
2021/08/02 11:56:49;;;;;;;1.58;0.43;;;22.20;72.30;;;;;;4985509;28;19988;-68
2021/08/02 11:59:19;;;;;;;0.75;0.38;;;22.10;72.20;;;;;;4980832;28;20175;-67
2021/08/02 12:01:49;;;;;;;2.55;0.60;;;22.10;71.90;;;;;;4975869;28;20038;-66
2021/08/02 12:04:16;;;;;;;1.23;0.50;;;22.10;71.70;;;;;;4980739;28;20022;-67
2021/08/02 12:06:59;;;;;;;1.27;0.40;;;22.10;71.20;;;;;;4996300;28;20031;-67
2021/08/02 12:09:32;;;;;;;1.30;0.50;;;22.10;71.00;;;;;;4994975;28;20022;-67
2021/08/02 12:12:28;;;;;;;2.33;0.50;;;22.00;71.10;;;;;;4996039;28;20034;-68
2021/08/02 12:15:06;;;;;;;1.80;0.40;;;22.00;70.70;;;;;;4996203;28;20089;-68
2021/08/02 12:17:33;;;;;;;2.25;0.47;;;21.90;70.10;;;;;;4996202;28;20041;-68
2021/08/02 12:19:58;;;;;;;0.73;0.43;;;21.90;70.40;;;;;;4995872;28;20020;-68
2021/08/02 12:22:49;;;;;;;2.55;0.40;;;21.80;70.50;;;;;;4995889;28;20030;-68
2021/08/02 12:25:15;;;;;;;0.98;0.40;;;21.90;70.40;;;;;;4995797;28;20037;-67
2021/08/02 12:27:40;;;;;;;2.25;0.60;;;21.80;70.70;;;;;;4994525;28;20030;-68
2021/08/02 12:30:23;;;;;;;1.45;0.60;;;21.70;70.30;;;;;;4995784;28;20068;-67
2021/08/02 12:32:49;;;;;;;1.15;0.40;;;21.70;69.80;;;;;;4995716;28;20109;-67
2021/08/02 12:35:16;;;;;;;3.00;0.50;;;21.70;70.10;;;;;;4994313;28;20109;-67
2021/08/02 12:37:43;;;;;;;1.42;0.50;;;21.70;69.80;;;;;;4989782;28;20034;-67
2021/08/02 12:40:11;;;;;;;2.13;0.55;;;21.60;69.60;;;;;;4995570;28;20106;-67
2021/08/02 12:42:39;;;;;;;1.40;0.52;;;21.70;69.60;;;;;;4995755;28;20030;-67
2021/08/02 12:45:06;;;;;;;1.95;0.52;;;21.80;69.30;;;;;;4995608;28;20030;-67
2021/08/02 12:47:31;;;;;;;1.73;0.50;;;21.90;68.80;;;;;;4991960;28;20121;-67
2021/08/02 12:49:58;;;;;;;2.08;0.50;;;22.20;68.30;;;;;;4995298;28;20392;-67
2021/08/02 12:52:29;;;;;;;1.95;0.55;;;22.50;67.30;;;;;;4995112;28;20081;-67
2021/08/02 12:55:21;;;;;;;;;;;;;;;;;;;;;
2021/08/02 12:57:47;;;;;;;2.50;0.40;;;22.90;65.00;;;;;;4995287;28;20033;-67
2021/08/02 13:00:15;;;;;;;2.30;0.60;;;23.20;65.20;;;;;;4995301;28;20113;-68
2021/08/02 13:02:41;;;;;;;1.25;0.50;;;23.50;64.80;;;;;;4995372;28;20069;-68